Date,TemperatureHighF,TemperatureAvgF,TemperatureLowF,DewpointHighF,DewpointAvgF,DewpointLowF,HumidityHigh,HumidityAvg,HumidityLow,PressureMaxIn,PressureMinIn,WindSpeedMaxMPH,WindSpeedAvgMPH,GustSpeedMaxMPH,PrecipitationSumIn
2013-1-1,26,12,-1,10,4,-9,78,68,47,30.83,30.62,13,2,24,0.00
2013-1-2,32,18,7,9,2,-7,67,51,30,30.81,30.70,10,4,14,0.00
2013-1-3,21,7,0,4,-5,-10,72,58,35,30.91,30.80,8,2,8,0.00
2013-1-4,18,5,-4,4,-4,-12,74,67,50,30.91,30.80,6,2,9,0.00
2013-1-5,26,10,-1,8,-1,-8,78,64,45,30.93,30.82,11,3,17,0.01
2013-1-6,22,11,2,10,3,-4,78,70,56,30.84,30.53,8,2,12,0.00
2013-1-7,28,18,9,14,7,1,72,63,51,30.55,30.27,7,2,10,0.00
2013-1-8,43,27,18,18,13,9,71,58,33,30.56,30.27,9,3,11,0.00
2013-1-9,38,26,17,21,15,10,78,65,44,30.59,30.24,6,2,11,0.00
2013-1-10,37,28,16,22,17,10,83,64,46,30.22,29.66,32,5,45,0.01
2013-1-11,30,11,-1,21,6,-8,84,78,64,30.44,29.65,15,5,16,0.00
2013-1-12,6,-2,-10,-1,-9,-18,76,72,68,30.75,30.45,4,1,6,0.00
2013-1-13,8,-1,-10,1,-8,-19,75,71,60,30.82,30.74,7,2,11,0.00
2013-1-14,8,-4,-12,-3,-12,-20,74,68,60,30.91,30.77,5,1,8,0.00
2013-1-15,13,4,-5,4,-4,-12,83,72,64,30.96,30.86,7,2,12,0.00
2013-1-16,24,12,4,12,4,-1,82,74,57,30.99,30.87,5,2,8,0.05
2013-1-17,28,12,2,12,4,-5,82,72,46,31.10,30.82,13,2,15,0.00
2013-1-18,49,31,16,23,12,5,65,46,20,30.81,30.43,8,3,15,0.03
2013-1-19,46,32,22,18,7,1,54,37,17,30.52,30.44,9,3,13,0.00
2013-1-20,40,26,13,14,8,2,74,49,21,30.62,30.47,14,4,20,0.00
2013-1-21,49,30,17,17,10,4,69,45,21,30.61,30.41,10,3,17,0.00
2013-1-22,48,29,16,18,7,0,56,41,20,30.50,30.40,6,3,10,0.00
2013-1-23,47,34,25,20,12,5,59,42,19,30.49,30.34,9,2,15,0.00
2013-1-24,49,36,24,26,16,8,73,47,27,30.41,30.25,14,3,23,0.00
2013-1-25,48,32,22,20,15,10,65,51,26,30.42,30.32,8,3,11,0.00
2013-1-26,43,32,25,25,20,13,76,62,46,30.32,30.04,9,2,9,0.00
2013-1-27,41,33,25,28,23,18,80,69,52,30.02,29.83,19,4,24,0.00
2013-1-28,28,22,9,20,13,-2,84,69,43,30.15,29.96,8,2,14,0.01
2013-1-29,26,14,1,15,3,-7,84,62,28,30.53,30.13,11,3,17,0.00
2013-1-30,41,22,3,20,9,-6,73,57,29,30.48,30.28,21,3,25,0.07
2013-1-31,45,29,17,19,12,7,66,51,27,30.46,30.33,11,3,12,0.00
2013-2-1,42,29,20,23,13,7,69,53,29,30.59,30.32,14,4,23,0.00
2013-2-2,41,29,16,21,9,-1,68,46,28,30.65,30.57,10,4,14,0.00
2013-2-3,46,28,19,22,13,4,68,54,28,30.57,30.29,14,3,17,0.00
2013-2-4,48,34,23,21,12,6,56,41,22,30.33,30.15,13,3,18,0.00
2013-2-5,47,34,25,25,17,12,64,51,35,30.23,30.07,13,3,15,0.00
2013-2-6,45,32,20,15,12,4,62,44,24,30.40,30.06,9,3,17,0.00
2013-2-7,35,25,15,10,4,-6,59,42,26,30.42,30.30,11,3,13,0.00
2013-2-8,33,23,12,24,12,1,89,63,39,30.32,30.18,8,2,14,0.00
2013-2-9,28,24,14,24,20,9,89,85,77,30.18,30.03,5,1,8,0.14
2013-2-10,26,21,14,20,13,5,87,73,61,30.47,30.12,13,4,20,0.02
2013-2-11,20,7,-2,7,-2,-10,78,67,52,30.64,30.47,6,2,8,0.01
2013-2-12,27,9,-1,12,1,-8,80,71,46,30.74,30.62,8,2,11,0.00
2013-2-13,44,30,13,23,14,6,77,53,32,30.63,30.34,20,6,26,0.04
2013-2-14,28,19,7,16,10,1,81,71,55,30.71,30.34,9,3,15,0.00
2013-2-15,40,22,6,17,9,0,81,58,31,30.89,30.67,12,3,16,0.00
2013-2-16,47,31,18,25,15,8,64,53,31,30.67,30.18,10,3,13,0.00
2013-2-17,40,29,20,21,13,2,87,54,22,30.24,29.94,16,6,23,0.00
2013-2-18,32,22,14,9,4,-2,65,46,30,30.39,30.24,16,4,20,0.00
2013-2-19,34,21,11,14,10,5,76,63,39,30.38,30.10,6,2,8,0.00
2013-2-20,34,22,13,15,10,5,73,61,43,30.14,30.03,7,2,9,0.00
2013-2-21,27,21,12,18,13,7,83,74,57,30.30,30.15,9,2,10,0.01
2013-2-22,35,22,12,9,5,0,74,50,24,30.38,30.16,9,2,14,0.00
2013-2-23,37,26,16,24,13,4,89,61,32,30.22,29.92,13,3,21,0.00
2013-2-24,31,22,13,18,11,1,87,64,38,30.48,30.23,11,3,15,0.15
2013-2-25,28,19,5,15,6,-4,71,58,43,30.48,30.25,11,2,16,0.00
2013-2-26,35,23,14,17,10,4,79,60,32,30.62,30.30,10,3,16,0.00
2013-2-27,34,23,14,11,5,-1,59,47,28,30.66,30.61,12,3,20,0.00
2013-2-28,42,28,16,16,7,-2,55,42,22,30.67,30.58,13,4,16,0.00
2013-3-1,50,36,19,27,18,8,63,50,31,30.68,30.54,10,3,16,0.00
2013-3-2,56,39,24,27,22,16,73,52,28,30.60,30.15,9,2,12,0.00
2013-3-3,49,40,26,26,20,10,73,49,27,30.15,29.77,25,7,44,0.00
2013-3-4,26,22,13,18,12,6,78,64,44,30.66,30.00,14,4,18,0.00
2013-3-5,35,22,11,14,7,0,75,55,28,30.67,30.44,8,3,15,0.00
2013-3-6,49,34,19,32,15,7,83,50,29,30.44,30.01,30,5,44,0.01
2013-3-7,45,37,28,30,21,8,86,55,28,30.19,30.10,11,3,15,0.00
2013-3-8,48,38,31,28,24,21,73,58,39,30.16,29.94,7,2,13,0.00
2013-3-9,41,34,26,28,19,11,87,57,32,30.46,30.01,17,4,24,0.00
2013-3-10,49,35,19,22,13,7,68,42,24,30.53,30.29,9,3,14,0.00
2013-3-11,48,36,27,25,17,5,84,50,19,30.41,30.16,19,4,29,0.00
2013-3-12,50,34,24,24,19,11,81,57,24,30.51,30.36,10,3,14,0.00
2013-3-13,61,45,30,25,22,17,69,43,21,30.46,30.34,12,3,22,0.00
2013-3-14,63,48,36,26,21,12,60,38,14,30.38,30.16,15,4,22,0.00
2013-3-15,64,51,38,23,19,16,50,31,18,30.16,29.95,27,5,31,0.00
2013-3-16,54,42,30,26,19,5,71,44,18,30.07,29.90,20,6,25,0.00
2013-3-17,41,34,20,25,7,-7,57,33,17,30.12,29.62,56,15,73,0.00
2013-3-18,39,28,15,10,4,-4,65,38,17,30.27,30.12,38,8,52,0.00
2013-3-19,46,31,17,17,4,-14,79,39,8,30.52,30.20,24,5,40,0.00
2013-3-20,55,35,18,25,15,6,71,47,23,30.52,29.93,25,5,36,0.00
2013-3-21,44,35,28,28,19,-6,81,54,20,30.07,29.71,32,5,32,0.02
2013-3-22,28,22,14,18,10,-5,87,65,26,30.39,30.05,20,4,31,0.01
2013-3-23,22,18,10,15,11,3,85,75,57,30.60,30.40,8,2,11,0.06
2013-3-24,27,17,5,9,3,-5,72,55,38,30.70,30.60,9,3,13,0.01
2013-3-25,37,24,9,14,3,-3,64,43,25,30.70,30.44,21,5,22,0.00
2013-3-26,46,35,25,23,12,4,64,41,24,30.43,30.16,10,4,14,0.00
2013-3-27,53,40,27,23,20,15,71,47,22,30.27,30.17,13,3,25,0.00
2013-3-28,59,46,33,26,20,17,56,37,20,30.29,30.14,12,4,17,0.00
2013-3-29,60,49,38,28,24,17,64,40,19,30.22,30.13,19,4,29,0.00
2013-3-30,53,40,29,34,28,23,88,64,37,30.38,30.22,12,3,16,0.00
2013-3-31,60,47,34,24,18,11,66,35,17,30.36,30.14,10,5,21,0.00
2013-4-1,52,41,27,25,23,20,76,50,30,30.25,30.18,9,3,15,0.00
2013-4-2,57,43,29,24,18,9,74,41,16,30.28,30.18,16,4,23,0.00
2013-4-3,62,48,34,27,18,9,53,32,17,30.23,30.12,24,4,24,0.00
2013-4-4,64,51,35,28,24,20,64,37,19,30.23,29.96,19,4,21,0.00
2013-4-5,60,51,35,32,23,15,55,35,21,29.99,29.73,23,7,42,0.00
2013-4-6,56,44,31,32,21,17,61,42,22,30.06,29.95,32,7,43,0.00
2013-4-7,57,44,33,31,23,17,64,45,22,29.96,29.73,27,8,38,0.00
2013-4-8,41,27,16,30,22,12,90,80,53,30.38,29.75,14,4,16,0.06
2013-4-9,23,16,10,17,12,6,85,82,75,30.73,30.38,8,3,13,0.24
2013-4-10,28,17,5,22,12,0,86,81,76,30.72,30.36,6,2,10,0.10
2013-4-11,44,32,20,32,25,16,86,74,53,30.37,30.15,12,3,15,0.00
2013-4-12,43,34,29,30,25,19,91,71,50,30.28,30.06,10,4,14,0.04
2013-4-13,51,39,28,34,22,5,81,54,27,30.06,29.53,42,13,47,0.00
2013-4-14,40,32,22,23,10,-6,87,47,14,30.05,29.73,22,6,32,0.00
2013-4-15,30,25,21,22,20,17,88,82,67,30.34,30.00,9,3,14,0.22
2013-4-16,25,21,18,20,17,15,87,84,76,30.56,30.33,10,3,14,0.18
2013-4-17,28,20,12,18,13,7,86,75,49,30.65,30.54,7,2,11,0.02
2013-4-18,38,25,9,19,10,-1,80,55,25,30.64,30.51,8,3,11,0.00
2013-4-19,49,38,26,29,19,11,71,47,29,30.52,30.06,16,4,21,0.00
2013-4-20,53,43,31,28,24,17,77,52,25,30.16,30.03,17,4,30,0.00
2013-4-21,55,44,31,29,22,12,76,47,18,30.19,30.00,42,7,44,0.00
2013-4-22,32,24,19,24,20,16,88,84,72,30.69,30.12,12,5,17,0.13
2013-4-23,38,23,7,19,11,0,87,64,26,30.73,30.53,6,2,10,0.06
2013-4-24,50,36,21,25,14,8,73,44,21,30.58,30.32,14,3,28,0.00
2013-4-25,59,45,28,20,12,1,53,29,10,30.32,30.07,20,5,23,0.00
2013-4-26,65,53,35,21,16,9,51,25,11,30.30,30.20,20,6,26,0.00
2013-4-27,70,58,42,28,20,13,43,25,11,30.26,29.99,21,5,28,0.00
2013-4-28,67,57,43,29,23,16,51,28,16,30.00,29.87,22,7,32,0.00
2013-4-29,64,51,34,30,23,15,63,36,21,29.88,29.63,32,7,43,0.00
2013-4-30,53,37,28,32,27,18,91,69,25,30.34,29.74,20,5,25,0.00
2013-5-1,35,28,24,26,22,13,91,78,56,30.98,30.35,8,2,13,0.39
2013-5-2,50,35,19,24,14,4,67,46,15,31.06,30.66,13,3,15,0.00
2013-5-3,58,48,34,30,20,12,61,35,17,30.65,30.21,11,3,14,0.00
2013-5-4,50,43,38,38,35,28,89,75,45,30.37,30.22,11,3,18,0.21
2013-5-5,55,46,36,38,31,24,86,59,32,30.37,30.19,9,3,14,0.01
2013-5-6,65,53,39,35,29,25,64,41,23,30.21,29.97,10,3,17,0.00
2013-5-7,64,54,42,38,33,29,69,48,28,30.03,29.91,15,3,28,0.00
2013-5-8,62,55,46,41,34,26,76,47,25,30.19,30.03,16,6,22,0.03
2013-5-9,68,55,41,38,32,25,72,44,22,30.24,30.13,21,4,30,0.00
2013-5-10,67,55,40,37,32,21,75,45,18,30.40,30.23,17,4,26,0.00
2013-5-11,69,56,40,41,33,24,76,47,19,30.43,30.22,10,3,24,0.00
2013-5-12,79,65,47,39,32,28,60,32,16,30.27,30.03,15,4,18,0.00
2013-5-13,81,69,52,38,31,26,51,27,13,30.06,29.81,22,6,26,0.00
2013-5-14,79,68,54,34,28,22,45,24,13,29.87,29.76,24,7,33,0.00
2013-5-15,75,62,51,43,33,26,62,34,19,29.91,29.75,29,6,37,0.00
2013-5-16,65,57,49,46,42,36,79,59,37,29.89,29.77,14,3,52,0.12
2013-5-17,71,57,46,48,40,24,85,56,17,29.89,29.76,27,6,39,0.00
2013-5-18,65,53,45,45,39,30,88,62,29,29.97,29.80,22,5,27,0.66
2013-5-19,51,45,42,43,40,38,91,84,64,30.18,29.97,10,2,15,0.67
2013-5-20,57,48,42,43,38,34,88,70,42,30.25,30.16,14,4,23,0.16
2013-5-21,61,52,40,41,37,34,85,60,37,30.24,29.94,11,3,16,0.01
2013-5-22,69,54,41,48,40,35,81,60,39,29.98,29.77,10,3,21,0.00
2013-5-23,73,56,46,46,40,22,84,59,15,29.91,29.62,11,4,21,0.00
2013-5-24,70,57,44,39,24,7,76,34,9,30.00,29.76,15,4,23,0.00
2013-5-25,76,62,48,34,23,14,41,24,10,29.98,29.79,20,5,36,0.00
2013-5-26,75,62,49,40,30,16,56,33,11,29.91,29.74,20,4,27,0.00
2013-5-27,69,60,48,41,28,19,55,33,16,29.86,29.73,21,6,31,0.00
2013-5-28,60,53,44,45,38,28,83,59,38,29.81,29.67,17,3,25,0.05
2013-5-29,54,48,42,43,41,37,88,76,59,29.82,29.72,11,3,17,0.13
2013-5-30,60,50,36,42,29,21,85,51,23,29.97,29.79,37,7,38,0.00
2013-5-31,62,50,35,36,27,18,75,45,21,30.32,29.96,30,7,35,0.00
2013-6-1,66,52,39,38,36,30,87,57,28,30.36,30.16,13,4,19,0.00
2013-6-2,80,60,40,42,33,21,78,42,13,30.16,29.63,17,5,32,0.00
2013-6-3,67,60,44,36,22,7,51,26,12,30.00,29.61,20,7,28,0.00
2013-6-4,58,48,35,37,33,27,81,58,43,30.37,30.00,13,4,18,0.00
2013-6-5,67,53,38,38,34,30,82,52,27,30.37,30.12,9,3,15,0.00
2013-6-6,75,60,41,48,37,30,72,45,22,30.18,30.04,13,3,15,0.00
2013-6-7,80,65,46,46,39,31,72,41,21,30.09,29.69,16,4,23,0.00
2013-6-8,77,65,50,43,37,28,71,39,20,29.94,29.68,16,4,23,0.00
2013-6-9,87,66,44,45,36,30,73,39,13,29.99,29.77,19,5,28,0.00
2013-6-10,89,74,60,47,36,25,55,27,10,29.79,29.59,23,5,52,0.00
2013-6-11,77,66,49,49,37,28,64,37,18,29.97,29.66,31,6,51,0.00
2013-6-12,82,66,48,44,38,23,67,39,12,30.03,29.84,13,4,23,0.00
2013-6-13,84,67,50,50,35,19,81,40,9,29.93,29.66,28,6,54,0.00
2013-6-14,71,60,45,38,22,3,60,28,7,30.12,29.78,30,8,42,0.00
2013-6-15,75,59,40,36,26,16,47,30,16,30.16,29.96,10,3,17,0.00
2013-6-16,82,67,47,40,26,19,47,23,10,30.08,29.91,19,3,28,0.00
2013-6-17,80,66,49,43,38,31,69,39,17,30.09,29.92,9,4,27,0.00
2013-6-18,80,67,49,45,38,26,71,38,15,30.00,29.74,17,4,31,0.02
2013-6-19,83,67,49,42,29,7,65,30,9,29.77,29.50,34,11,55,0.00
2013-6-20,73,60,39,33,20,6,56,24,11,29.91,29.68,29,6,41,0.00
2013-6-21,77,64,48,38,27,16,50,28,10,29.96,29.81,18,5,34,0.00
2013-6-22,73,61,47,49,37,18,74,45,13,30.02,29.77,25,6,33,0.07
2013-6-23,78,62,42,39,30,22,72,36,14,30.03,29.76,19,5,31,0.00
2013-6-24,82,71,56,38,30,22,49,23,11,29.76,29.53,34,8,43,0.00
2013-6-25,77,66,51,44,37,29,63,36,20,29.91,29.66,17,6,30,0.00
2013-6-26,85,70,53,46,40,36,60,36,18,30.05,29.91,12,4,26,0.00
2013-6-27,92,74,54,48,39,30,64,33,11,30.12,30.02,16,4,22,0.00
2013-6-28,89,74,58,50,45,38,64,37,19,30.15,30.00,13,4,18,0.00
2013-6-29,85,70,58,54,48,42,66,47,24,30.12,29.98,19,3,32,0.05
2013-6-30,86,71,56,52,46,34,72,44,19,30.12,30.01,18,4,23,0.01
2013-7-1,84,71,55,57,47,42,71,45,26,30.16,30.05,10,3,17,0.00
2013-7-2,86,73,56,50,42,34,68,36,16,30.13,29.96,11,3,19,0.00
2013-7-3,86,74,59,61,44,31,56,35,20,29.97,29.78,12,3,16,0.00
2013-7-4,86,71,57,56,48,39,84,46,22,29.85,29.70,23,4,33,0.04
2013-7-5,84,70,57,57,51,36,84,54,18,29.82,29.68,21,4,25,0.00
2013-7-6,84,67,56,53,47,35,84,53,19,29.98,29.78,15,4,27,0.04
2013-7-7,82,69,52,53,47,36,88,51,21,29.97,29.86,29,6,38,0.03
2013-7-8,86,69,57,50,44,30,71,45,15,29.98,29.88,31,5,43,0.00
2013-7-9,89,73,55,55,39,27,55,32,11,30.07,29.96,11,3,27,0.00
2013-7-10,90,75,56,50,40,25,64,34,10,30.07,29.85,11,3,15,0.00
2013-7-11,90,76,57,49,37,28,61,27,12,29.88,29.65,19,4,23,0.00
2013-7-12,80,71,62,53,44,33,67,42,18,29.90,29.72,20,4,23,0.00
2013-7-13,81,72,56,49,40,34,67,34,19,30.00,29.89,17,4,26,0.00
2013-7-14,82,70,60,54,49,41,72,49,27,30.12,29.96,18,4,22,0.00
2013-7-15,90,73,56,57,46,36,70,41,16,30.02,29.80,9,2,16,0.00
2013-7-16,87,74,59,54,46,36,66,39,22,30.06,29.86,25,4,29,0.00
2013-7-17,87,72,56,54,50,46,77,50,25,30.09,29.95,33,5,40,0.04
2013-7-18,91,77,60,54,44,26,70,37,10,30.08,29.87,14,4,22,0.00
2013-7-19,91,77,63,50,45,35,55,35,18,30.00,29.75,12,4,23,0.00
2013-7-20,90,75,62,47,35,24,46,25,10,29.89,29.68,13,4,21,0.00
2013-7-21,92,77,56,42,30,11,50,21,5,29.81,29.67,15,4,21,0.00
2013-7-22,93,78,63,41,26,7,38,18,4,29.83,29.72,17,6,24,0.00
2013-7-23,86,72,56,40,29,14,41,21,10,30.03,29.82,9,3,16,0.00
2013-7-24,84,72,59,48,40,29,46,32,23,30.06,29.87,27,5,34,0.00
2013-7-25,80,69,57,47,43,35,62,41,21,30.13,29.90,17,4,23,0.00
2013-7-26,89,70,52,46,41,34,70,39,15,30.19,29.99,11,4,16,0.00
2013-7-27,78,67,53,53,43,37,64,44,26,30.04,29.89,8,3,21,0.00
2013-7-28,83,67,51,49,42,34,72,43,18,29.90,29.75,20,3,30,0.00
2013-7-29,79,62,48,47,42,36,74,52,21,30.13,29.88,34,5,50,0.04
2013-7-30,84,67,51,46,41,25,75,44,12,30.20,30.06,20,5,27,0.00
2013-7-31,80,64,51,55,46,40,76,53,25,30.24,30.08,8,2,11,0.05
2013-8-1,89,72,53,50,42,36,69,37,15,30.13,29.71,37,9,56,0.00
2013-8-2,84,72,55,50,35,18,71,33,9,29.91,29.71,39,8,56,0.00
2013-8-3,89,71,55,50,36,20,58,32,8,30.01,29.85,16,4,23,0.00
2013-8-4,89,73,52,51,37,19,64,33,9,30.01,29.82,11,4,21,0.00
2013-8-5,88,75,58,53,37,16,62,32,7,29.95,29.78,28,8,36,0.00
2013-8-6,88,71,58,42,35,18,46,29,8,29.98,29.80,18,4,20,0.00
2013-8-7,86,69,52,46,39,30,66,37,14,30.00,29.81,16,3,29,0.00
2013-8-8,81,66,53,48,40,26,64,40,13,30.05,29.90,17,4,29,0.00
2013-8-9,74,64,53,49,42,39,60,46,31,30.15,30.04,10,3,15,0.00
2013-8-10,82,67,49,48,41,30,74,43,16,30.14,30.00,15,3,19,0.00
2013-8-11,82,70,56,46,35,28,59,30,14,30.11,29.99,18,4,21,0.00
2013-8-12,81,68,54,42,36,29,58,33,15,30.10,30.01,18,4,27,0.00
2013-8-13,78,66,53,42,36,32,52,34,22,30.17,30.07,14,4,25,0.00
2013-8-14,82,66,47,44,34,25,59,33,12,30.18,29.99,13,4,25,0.00
2013-8-15,85,69,51,43,33,25,47,29,13,30.10,29.96,9,3,14,0.00
2013-8-16,89,72,54,44,30,20,41,23,9,30.07,29.91,15,4,17,0.00
2013-8-17,92,79,60,36,26,18,30,15,9,29.98,29.80,21,4,28,0.00
2013-8-18,90,77,64,44,35,29,35,22,12,29.92,29.79,18,3,26,0.00
2013-8-19,92,74,55,43,34,27,48,26,10,29.98,29.82,14,4,26,0.00
2013-8-20,86,75,66,48,38,29,50,27,20,29.94,29.82,24,6,31,0.00
2013-8-21,80,72,60,51,42,37,53,34,22,30.04,29.85,21,5,30,0.00
2013-8-22,85,72,55,49,45,39,68,40,20,30.09,29.91,14,4,22,0.00
2013-8-23,85,71,59,51,44,40,61,41,20,29.94,29.75,31,4,45,0.02
2013-8-24,83,70,59,50,43,32,66,40,18,29.94,29.82,16,4,18,0.00
2013-8-25,84,72,59,45,40,35,55,33,19,30.02,29.89,29,6,38,0.00
2013-8-26,81,72,59,49,42,36,57,35,26,29.99,29.90,24,6,37,0.00
2013-8-27,82,70,58,50,45,38,63,42,25,30.03,29.90,16,3,20,0.00
2013-8-28,87,73,58,49,42,35,61,37,16,29.99,29.89,19,5,29,0.00
2013-8-29,84,71,57,57,42,34,63,37,21,30.09,29.98,11,3,26,0.05
2013-8-30,88,71,54,52,42,36,70,40,16,30.10,29.92,17,3,35,0.00
2013-8-31,86,72,60,41,38,33,45,30,16,30.06,29.89,16,4,19,0.00
2013-9-1,82,68,48,47,39,34,70,38,21,30.10,29.95,8,3,10,0.00
2013-9-2,84,70,62,61,45,32,77,43,23,30.01,29.83,18,2,52,0.09
2013-9-3,85,72,59,57,50,45,78,51,26,30.04,29.92,12,4,16,0.00
2013-9-4,88,72,56,55,49,38,79,48,17,30.10,29.98,10,3,14,0.00
2013-9-5,90,75,61,54,44,37,61,36,16,30.05,29.89,15,4,27,0.00
2013-9-6,83,74,64,55,45,39,67,37,26,30.00,29.84,13,4,26,0.05
2013-9-7,82,68,54,53,49,44,79,52,28,30.05,29.90,33,3,36,0.01
2013-9-8,70,61,51,54,49,44,89,67,47,30.01,29.89,14,3,21,0.03
2013-9-9,73,61,46,49,44,36,83,58,27,30.08,29.93,16,3,18,0.00
2013-9-10,70,62,55,49,44,42,71,55,37,30.18,30.07,9,2,15,0.00
2013-9-11,62,57,55,52,48,43,87,71,53,30.34,30.18,16,4,23,0.44
2013-9-12,58,56,52,54,51,49,92,86,72,30.37,30.20,14,3,16,0.57
2013-9-13,69,58,51,54,52,48,92,79,60,30.19,29.92,7,2,10,0.00
2013-9-14,65,57,51,54,52,48,90,83,61,30.12,29.92,10,3,14,0.12
2013-9-15,61,57,54,56,53,52,93,89,82,30.20,30.12,10,2,14,0.32
2013-9-16,74,62,50,57,50,46,92,68,49,30.14,29.92,10,3,14,0.00
2013-9-17,80,62,51,53,45,39,85,57,27,29.94,29.66,17,4,34,0.13
2013-9-18,66,55,42,48,37,22,88,58,21,30.06,29.73,37,7,50,0.10
2013-9-19,60,49,37,39,29,23,71,48,29,30.30,30.07,12,4,15,0.00
2013-9-20,68,51,37,39,32,27,76,51,24,30.30,30.04,8,2,12,0.00
2013-9-21,80,60,43,40,29,20,67,36,12,30.04,29.69,19,4,22,0.00
2013-9-22,67,59,52,41,36,32,62,43,30,29.68,29.56,35,6,54,0.00
2013-9-23,66,55,40,37,30,25,71,42,21,30.07,29.61,15,4,20,0.00
2013-9-24,72,55,38,34,27,18,72,39,13,30.13,29.77,31,5,37,0.00
2013-9-25,62,49,42,41,35,22,86,60,28,29.79,29.49,22,4,22,0.01
2013-9-26,44,38,32,37,33,29,93,82,59,30.15,29.77,6,1,9,0.35
2013-9-27,36,33,32,32,31,30,93,90,81,30.27,30.12,7,0,8,0.82
2013-9-28,42,39,40,34,25,-100,77,70,71,30.29,0.00,4,-61,7,0.00
2013-9-29,64,52,37,38,32,26,78,49,24,30.24,29.90,21,4,41,0.00
2013-9-30,70,59,44,36,32,27,65,38,22,29.90,29.71,22,6,45,0.00
2013-10-1,71,53,39,37,33,29,74,49,24,30.01,29.87,17,4,21,0.00
2013-10-2,55,48,39,40,34,26,87,60,36,30.10,29.96,8,3,15,0.30
2013-10-3,40,38,32,36,35,30,92,88,85,30.22,29.93,13,3,15,0.31
2013-10-4,30,26,24,28,24,21,91,91,90,30.73,30.69,8,3,11,0.26
2013-10-5,42,28,16,32,23,11,90,81,60,30.73,30.67,5,2,8,0.37
2013-10-6,56,39,28,38,30,23,87,73,47,30.71,30.44,6,2,9,0.02
2013-10-7,57,42,30,43,32,23,83,68,53,30.44,30.03,9,2,11,0.00
2013-10-8,65,48,37,39,29,18,72,51,17,30.03,29.83,12,3,24,0.00
2013-10-9,47,44,41,38,35,31,86,72,56,30.13,30.00,7,2,16,0.00
2013-10-10,46,42,37,40,37,33,90,81,67,30.07,29.83,5,1,7,0.03
2013-10-11,48,41,31,40,34,27,92,77,55,30.27,29.84,12,3,18,0.03
2013-10-12,47,36,26,32,27,18,86,70,47,30.36,30.27,7,2,9,0.00
2013-10-13,47,39,32,37,32,27,90,75,55,30.34,30.19,8,2,12,0.15
2013-10-14,38,35,29,34,30,27,91,84,64,30.61,30.23,11,3,22,0.13
2013-10-15,41,32,25,28,25,21,91,76,49,30.67,30.50,7,2,10,0.10
2013-10-16,50,37,27,31,22,10,82,55,25,30.49,30.28,13,3,19,0.00
2013-10-17,40,33,28,31,27,24,91,79,62,30.46,30.28,10,3,14,0.02
2013-10-18,46,34,24,27,23,16,90,65,33,30.57,30.39,9,3,14,0.07
2013-10-19,61,46,32,33,24,18,65,44,23,30.39,30.09,11,4,15,0.00
2013-10-20,45,39,30,34,29,26,89,70,51,30.35,30.07,11,3,16,0.08
2013-10-21,59,41,28,30,25,21,78,57,25,30.46,30.32,10,3,14,0.00
2013-10-22,63,48,35,35,28,25,72,50,27,30.40,30.24,11,3,21,0.00
2013-10-23,62,48,36,31,24,13,67,41,23,30.32,30.23,12,3,18,0.00
2013-10-24,55,42,31,37,32,24,83,68,47,30.43,30.33,7,3,10,0.00
2013-10-25,64,46,30,32,26,20,76,50,22,30.47,30.36,14,4,16,0.00
2013-10-26,63,47,32,32,26,21,74,46,26,30.47,30.26,11,3,16,0.00
2013-10-27,63,48,35,28,22,16,55,39,16,30.25,29.88,17,4,22,0.00
2013-10-28,45,32,26,33,27,23,92,82,47,30.29,30.00,14,1,17,0.18
2013-10-29,30,25,19,25,22,15,91,87,78,30.32,30.25,0,0,0,0.06
2013-10-30,41,30,23,30,25,19,90,82,65,30.29,30.21,6,1,9,0.24
2013-10-31,51,41,31,31,26,17,71,56,35,30.22,30.09,11,3,16,0.04
2013-11-1,49,38,30,25,21,12,76,52,28,30.41,30.19,11,3,18,0.00
2013-11-2,53,38,26,26,20,16,68,51,27,30.40,29.89,7,2,13,0.00
2013-11-3,46,36,20,27,13,0,71,41,17,30.15,29.77,20,6,35,0.00
2013-11-4,35,25,17,13,8,3,71,50,28,30.41,30.15,8,2,13,0.00
2013-11-5,36,25,14,13,6,-1,67,46,26,30.52,30.41,8,3,15,0.00
2013-11-6,31,26,23,17,15,11,70,62,54,30.65,30.50,6,2,9,0.00
2013-11-7,54,38,26,27,23,18,73,56,32,30.65,30.02,22,4,33,0.00
2013-11-8,54,46,30,26,20,14,65,37,21,30.13,29.90,23,8,40,0.00
2013-11-9,49,37,29,25,23,20,74,58,36,30.46,30.13,7,3,10,0.00
2013-11-10,60,44,29,30,24,21,75,49,26,30.47,30.35,19,3,24,0.00
2013-11-11,54,39,28,28,24,20,83,56,28,30.77,30.35,11,3,15,0.00
2013-11-12,55,35,25,32,25,20,85,70,35,30.81,30.63,7,2,10,0.00
2013-11-13,59,40,32,34,28,19,78,63,26,30.62,30.29,17,3,27,0.00
2013-11-14,50,38,30,22,18,14,63,46,25,30.35,29.90,10,3,14,0.00
2013-11-15,46,33,22,20,15,8,66,50,25,29.91,29.69,15,3,22,0.00
2013-11-16,43,31,22,20,14,5,68,50,26,29.82,29.51,39,8,58,0.00
2013-11-17,39,29,18,13,7,3,66,42,24,30.36,29.83,13,4,15,0.00
2013-11-18,52,36,22,19,14,10,62,43,22,30.43,30.14,10,3,13,0.00
2013-11-19,52,39,28,23,20,16,67,47,29,30.13,29.91,17,4,21,0.00
2013-11-20,51,33,16,26,19,11,83,59,28,30.45,29.90,18,5,26,0.00
2013-11-21,20,11,0,12,6,-7,83,79,71,31.12,30.45,6,2,10,0.03
2013-11-22,23,7,-3,13,0,-10,79,72,64,31.27,31.11,6,2,8,0.00
2013-11-23,29,13,3,13,4,-4,78,69,52,31.26,30.86,7,3,8,0.00
2013-11-24,33,18,5,19,8,-3,79,67,35,30.85,30.57,8,2,9,0.01
2013-11-25,42,31,23,20,14,9,72,52,33,30.71,30.59,9,3,16,0.01
2013-11-26,42,29,19,22,17,13,78,64,43,30.75,30.56,6,2,9,0.00
2013-11-27,47,31,24,29,21,17,82,67,42,30.56,30.36,9,2,16,0.00
2013-11-28,41,30,24,26,22,18,82,72,51,30.47,30.40,5,2,8,0.00
2013-11-29,52,33,24,25,20,15,81,60,31,30.50,30.40,9,3,10,0.00
2013-11-30,47,34,25,23,18,15,67,54,31,30.47,30.36,10,3,13,0.00
2013-12-1,50,40,26,24,21,17,73,48,29,30.40,29.98,26,6,37,0.00
2013-12-2,50,45,30,27,22,18,76,43,28,29.97,29.54,50,26,64,0.00
2013-12-3,29,12,2,24,7,-5,86,79,74,30.37,29.61,12,4,19,0.00
2013-12-4,3,-4,-15,-5,-12,-23,75,69,65,30.81,30.37,8,2,11,0.00
2013-12-5,2,-9,-18,-8,-17,-26,72,67,61,30.91,30.79,8,2,8,0.00
2013-12-6,2,-8,-14,-9,-16,-22,72,67,62,30.96,30.89,5,1,7,0.00
2013-12-7,0,-9,-19,-9,-18,-28,71,67,62,30.94,30.62,6,1,7,0.00
2013-12-8,9,-3,-15,0,-11,-23,77,70,64,30.83,30.62,11,1,11,0.00
2013-12-9,25,8,-10,6,-6,-19,70,55,32,30.82,30.66,12,3,13,0.02
2013-12-10,28,15,6,9,3,-2,68,60,45,30.74,30.51,9,3,18,0.01
2013-12-11,32,15,5,11,2,-4,72,58,36,30.81,30.72,8,2,11,0.01
2013-12-12,34,19,10,17,8,2,75,63,43,30.79,30.42,8,2,13,0.01
2013-12-13,36,24,17,20,12,7,73,62,41,30.63,30.36,8,2,14,0.00
2013-12-14,41,31,18,20,13,5,63,48,38,30.66,30.50,14,4,22,0.00
2013-12-15,53,35,26,22,17,13,62,49,24,30.50,30.36,13,3,14,0.00
2013-12-16,38,32,28,14,13,12,56,46,35,30.57,30.53,10,4,17,0.00
2013-12-17,53,38,25,23,16,12,60,44,23,30.58,30.24,9,3,23,0.00
2013-12-18,52,38,31,20,16,12,56,41,21,30.24,29.83,10,3,14,0.00
2013-12-19,33,20,9,22,12,5,86,73,45,30.30,29.76,10,3,14,0.00
2013-12-20,21,9,-1,14,3,-8,82,78,70,30.34,30.12,7,1,9,0.03
2013-12-21,29,16,5,16,8,-1,79,70,52,30.44,30.08,9,2,12,0.01
2013-12-22,36,17,5,16,6,-3,78,64,29,30.69,30.43,7,2,15,0.02
2013-12-23,45,21,6,22,11,0,80,67,36,30.70,30.43,16,2,27,0.00
2013-12-24,44,31,16,26,11,3,84,47,27,30.62,30.27,19,6,35,0.00
2013-12-25,32,21,11,12,6,0,67,53,37,30.79,30.62,9,3,12,0.00
2013-12-26,46,35,25,24,17,9,72,49,38,30.69,30.54,12,3,22,0.00
2013-12-27,30,26,22,19,18,17,80,71,58,30.42,30.34,5,2,16,0.00
2013-12-28,34,26,16,25,18,12,89,72,46,30.63,30.25,11,2,19,0.00
2013-12-29,32,15,0,17,9,-6,87,78,53,30.66,30.45,15,2,24,0.03
2013-12-30,40,28,17,18,13,8,74,56,34,30.66,30.37,13,4,15,0.03
2013-12-31,45,33,20,25,18,12,81,55,32,30.38,30.18,15,4,27,0.00
2014-1-1,36,25,13,23,14,4,85,65,30,30.61,30.28,18,3,18,0.00
2014-1-2,39,21,10,18,9,1,76,62,30,30.66,30.42,10,2,13,0.00